createdAt,value
2023-05-05T00:01:09.287Z,11.68
2023-05-05T00:03:36.380Z,11.13
2023-05-05T00:06:03.182Z,11.65
2023-05-05T00:08:29.976Z,17.48
2023-05-05T00:10:57.630Z,9.10
2023-05-05T00:13:24.626Z,12.00
2023-05-05T00:15:52.124Z,12.30
2023-05-05T00:18:18.830Z,10.05
2023-05-05T00:20:47.146Z,10.20
2023-05-05T00:23:17.294Z,12.48
2023-05-05T00:25:43.970Z,10.55
2023-05-05T00:28:10.621Z,12.15
2023-05-05T00:30:37.577Z,9.90
2023-05-05T00:33:04.381Z,14.57
2023-05-05T00:35:31.189Z,18.15
2023-05-05T00:37:58.307Z,15.85
2023-05-05T00:40:25.329Z,13.95
2023-05-05T00:42:52.418Z,12.60
2023-05-05T00:45:20.164Z,10.70
2023-05-05T00:47:49.325Z,10.15
2023-05-05T00:50:26.834Z,7.93
2023-05-05T00:52:56.773Z,8.52
2023-05-05T00:55:23.541Z,8.77
2023-05-05T00:57:50.452Z,8.35
2023-05-05T01:00:17.918Z,7.82
2023-05-05T01:02:44.926Z,8.40
2023-05-05T01:05:13.252Z,7.70
2023-05-05T01:08:19.630Z,9.55
2023-05-05T01:10:49.132Z,8.52
2023-05-05T01:14:01.431Z,7.45
2023-05-05T01:16:29.375Z,5.63
2023-05-05T01:19:08.007Z,6.72
2023-05-05T01:21:46.982Z,7.15
2023-05-05T01:24:22.662Z,12.98
2023-05-05T01:27:07.777Z,13.38
2023-05-05T01:29:40.391Z,8.57
2023-05-05T01:32:11.158Z,8.40
2023-05-05T01:34:42.109Z,8.88
2023-05-05T01:37:18.607Z,7.25
2023-05-05T01:39:45.312Z,8.98
2023-05-05T01:42:15.176Z,6.45
2023-05-05T01:44:43.536Z,9.38
2023-05-05T01:47:15.107Z,6.13
2023-05-05T01:49:43.225Z,6.50
2023-05-05T01:52:09.886Z,7.25
2023-05-05T01:54:36.549Z,6.28
2023-05-05T01:57:04.844Z,9.93
2023-05-05T01:59:32.354Z,6.38
2023-05-05T02:02:00.285Z,8.05
2023-05-05T02:04:27.300Z,7.78
2023-05-05T02:06:54.194Z,6.85
2023-05-05T02:09:20.960Z,5.97
2023-05-05T02:11:47.645Z,7.57
2023-05-05T02:14:14.225Z,7.88
2023-05-05T02:16:41.354Z,7.20
2023-05-05T02:19:08.068Z,6.22
2023-05-05T02:21:34.880Z,6.30
2023-05-05T02:24:01.800Z,6.38
2023-05-05T02:26:28.510Z,6.68
2023-05-05T02:29:02.069Z,4.53
2023-05-05T02:31:28.897Z,5.57
2023-05-05T02:33:56.336Z,4.20
2023-05-05T02:36:23.567Z,5.88
2023-05-05T02:38:56.207Z,5.45
2023-05-05T02:41:22.914Z,7.63
2023-05-05T02:43:50.082Z,6.03
2023-05-05T02:46:17.707Z,6.95
2023-05-05T02:48:44.896Z,8.82
2023-05-05T02:51:11.628Z,11.38
2023-05-05T02:53:38.315Z,6.05
2023-05-05T02:56:22.505Z,9.18
2023-05-05T02:58:53.131Z,10.10
2023-05-05T03:01:53.348Z,8.10
2023-05-05T03:04:30.100Z,7.90
2023-05-05T03:06:58.862Z,8.10
2023-05-05T03:09:38.111Z,7.85
2023-05-05T03:12:06.936Z,5.88
2023-05-05T03:14:36.502Z,8.25
2023-05-05T03:17:03.405Z,7.05
2023-05-05T03:19:30.078Z,8.80
2023-05-05T03:21:56.699Z,13.68
2023-05-05T03:24:23.346Z,12.93
2023-05-05T03:26:50.032Z,7.40
2023-05-05T03:29:17.252Z,9.43
2023-05-05T03:31:44.056Z,7.75
2023-05-05T03:34:10.767Z,10.93
2023-05-05T03:36:38.194Z,9.48
2023-05-05T03:39:04.949Z,13.02
2023-05-05T03:41:31.631Z,8.68
2023-05-05T03:43:58.228Z,7.85
2023-05-05T03:46:25.092Z,9.00
2023-05-05T03:48:51.863Z,9.07
2023-05-05T03:51:18.541Z,9.90
2023-05-05T03:53:45.260Z,7.38
2023-05-05T03:56:11.946Z,8.70
2023-05-05T03:58:38.661Z,7.13
2023-05-05T04:01:05.443Z,8.27
2023-05-05T04:03:32.390Z,7.93
2023-05-05T04:05:59.261Z,7.65
2023-05-05T04:08:25.870Z,7.50
2023-05-05T04:10:52.640Z,9.00
2023-05-05T04:13:19.424Z,7.57
2023-05-05T04:15:46.579Z,9.45
2023-05-05T04:18:13.236Z,8.50
2023-05-05T04:20:39.892Z,11.60
2023-05-05T04:23:06.573Z,10.00
2023-05-05T04:25:33.316Z,11.32
2023-05-05T04:27:59.994Z,9.45
2023-05-05T04:30:26.780Z,10.95
2023-05-05T04:32:53.621Z,8.60
2023-05-05T04:35:20.461Z,8.02
2023-05-05T04:37:47.203Z,8.57
2023-05-05T04:40:13.889Z,9.32
2023-05-05T04:42:40.528Z,10.07
2023-05-05T04:45:08.575Z,8.85
2023-05-05T04:47:39.094Z,9.13
2023-05-05T04:50:07.295Z,9.95
2023-05-05T04:52:34.238Z,9.88
2023-05-05T04:55:01.303Z,9.88
2023-05-05T04:57:28.072Z,10.20
2023-05-05T04:59:54.794Z,9.70
2023-05-05T05:02:21.658Z,12.60
2023-05-05T05:04:48.404Z,9.40
2023-05-05T05:07:15.177Z,9.85
2023-05-05T05:09:41.905Z,10.82
2023-05-05T05:12:09.691Z,6.28
2023-05-05T05:14:39.457Z,7.15
2023-05-05T05:17:06.426Z,9.02
2023-05-05T05:19:33.113Z,6.03
2023-05-05T05:21:59.720Z,6.10
2023-05-05T05:24:26.514Z,5.22
2023-05-05T05:26:53.177Z,5.13
2023-05-05T05:29:20.457Z,6.15
2023-05-05T05:31:47.215Z,5.75
2023-05-05T05:34:13.832Z,5.05
2023-05-05T05:36:40.685Z,7.43
2023-05-05T05:39:07.406Z,6.13
2023-05-05T05:41:34.080Z,5.20
2023-05-05T05:44:00.760Z,4.95
2023-05-05T05:46:27.580Z,6.10
2023-05-05T05:48:54.403Z,4.85
2023-05-05T05:51:21.140Z,6.05
2023-05-05T05:53:47.941Z,5.75
2023-05-05T05:56:14.572Z,6.40
2023-05-05T05:58:42.419Z,6.53
2023-05-05T06:01:09.160Z,5.70
2023-05-05T06:03:36.229Z,6.32
2023-05-05T06:06:02.954Z,6.28
2023-05-05T06:08:29.631Z,7.55
2023-05-05T06:10:56.299Z,5.57
2023-05-05T06:13:23.062Z,5.93
2023-05-05T06:15:49.861Z,5.93
2023-05-05T06:18:16.692Z,6.68
2023-05-05T06:20:46.427Z,6.28
2023-05-05T06:23:13.149Z,8.30
2023-05-05T06:25:39.885Z,5.65
2023-05-05T06:28:07.275Z,5.32
2023-05-05T06:30:34.214Z,8.65
2023-05-05T06:33:00.967Z,5.00
2023-05-05T06:35:27.660Z,5.55
2023-05-05T06:37:54.418Z,6.95
2023-05-05T06:40:21.500Z,5.60
2023-05-05T06:42:48.192Z,4.40
2023-05-05T06:45:15.239Z,6.03
2023-05-05T06:47:42.413Z,7.25
2023-05-05T06:50:09.559Z,6.57
2023-05-05T06:52:36.457Z,5.10
2023-05-05T06:55:03.890Z,4.57
2023-05-05T06:57:30.593Z,5.05
2023-05-05T06:59:57.289Z,5.20
2023-05-05T07:02:25.982Z,4.57
2023-05-05T07:04:55.728Z,5.00
2023-05-05T07:07:22.694Z,4.25
2023-05-05T07:09:49.468Z,3.05
2023-05-05T07:12:16.105Z,4.78
2023-05-05T07:14:42.770Z,4.97
2023-05-05T07:17:09.405Z,4.70
2023-05-05T07:19:36.181Z,4.30
2023-05-05T07:22:02.794Z,6.22
2023-05-05T07:24:29.531Z,4.80
2023-05-05T07:26:56.244Z,3.38
2023-05-05T07:29:22.957Z,3.70
2023-05-05T07:31:49.721Z,6.55
2023-05-05T07:34:16.353Z,5.28
2023-05-05T07:36:43.065Z,4.88
2023-05-05T07:39:09.822Z,4.97
2023-05-05T07:41:36.545Z,3.78
2023-05-05T07:44:03.187Z,3.35
2023-05-05T07:46:29.941Z,10.40
2023-05-05T07:48:56.564Z,4.05
2023-05-05T07:51:23.218Z,3.85
2023-05-05T07:53:49.870Z,3.40
2023-05-05T07:56:16.507Z,4.88
2023-05-05T07:58:43.261Z,4.32
2023-05-05T08:01:11.332Z,4.38
2023-05-05T08:03:38.483Z,6.65
2023-05-05T08:06:10.343Z,4.38
2023-05-05T08:08:37.127Z,4.30
2023-05-05T08:11:03.952Z,5.95
2023-05-05T08:13:30.674Z,5.07
2023-05-05T08:15:57.461Z,6.25
2023-05-05T08:18:24.691Z,4.57
2023-05-05T08:20:52.007Z,4.50
2023-05-05T08:23:19.031Z,4.40
2023-05-05T08:25:45.715Z,4.53
2023-05-05T08:28:12.279Z,6.28
2023-05-05T08:30:39.238Z,5.15
2023-05-05T08:33:06.146Z,4.70
2023-05-05T08:35:32.862Z,4.43
2023-05-05T08:37:59.479Z,4.57
2023-05-05T08:40:29.876Z,4.63
2023-05-05T08:42:56.591Z,4.65
2023-05-05T08:45:23.256Z,4.82
2023-05-05T08:47:49.940Z,8.90
2023-05-05T08:50:16.597Z,3.47
2023-05-05T08:52:44.509Z,6.85
2023-05-05T08:55:24.488Z,5.10
2023-05-05T08:57:56.480Z,4.75
2023-05-05T09:00:23.554Z,4.32
2023-05-05T09:02:50.436Z,3.83
2023-05-05T09:05:17.442Z,7.05
2023-05-05T09:07:44.293Z,5.85
2023-05-05T09:10:11.603Z,4.78
2023-05-05T09:12:42.081Z,3.80
2023-05-05T09:15:13.274Z,4.45
2023-05-05T09:17:40.179Z,4.43
2023-05-05T09:20:11.202Z,4.65
2023-05-05T09:22:44.994Z,4.00
2023-05-05T09:25:15.682Z,4.22
2023-05-05T09:27:47.210Z,3.67
2023-05-05T09:30:31.997Z,6.03
2023-05-05T09:32:58.827Z,4.53
2023-05-05T09:35:26.399Z,3.17
2023-05-05T09:37:53.101Z,3.88
2023-05-05T09:40:21.353Z,5.22
2023-05-05T09:42:48.355Z,5.68
2023-05-05T09:45:18.077Z,3.47
2023-05-05T09:47:45.817Z,3.20
2023-05-05T09:50:15.915Z,3.95
2023-05-05T09:52:46.207Z,2.95
2023-05-05T09:55:19.565Z,4.05
2023-05-05T09:57:47.516Z,6.53
2023-05-05T10:00:14.735Z,8.25
2023-05-05T10:02:41.979Z,2.97
2023-05-05T10:05:13.433Z,5.90
2023-05-05T10:07:42.002Z,3.55
2023-05-05T10:10:13.369Z,2.90
2023-05-05T10:12:40.189Z,2.63
2023-05-05T10:15:07.928Z,2.60
2023-05-05T10:18:05.989Z,2.95
2023-05-05T10:20:33.855Z,3.40
2023-05-05T10:23:00.505Z,3.60
2023-05-05T10:25:33.533Z,9.98
2023-05-05T10:28:01.018Z,3.22
2023-05-05T10:30:31.505Z,4.60
2023-05-05T10:35:40.913Z,3.08
2023-05-05T10:38:08.669Z,3.58
2023-05-05T10:40:35.395Z,3.60
2023-05-05T10:43:02.021Z,3.75
2023-05-05T10:45:29.060Z,9.65
2023-05-05T10:47:57.257Z,3.15
2023-05-05T10:50:33.069Z,3.72
2023-05-05T10:53:20.884Z,3.17
2023-05-05T10:56:08.788Z,2.95
2023-05-05T10:58:55.356Z,2.58
2023-05-05T11:01:36.244Z,3.40
2023-05-05T11:04:21.907Z,3.15
2023-05-05T11:07:11.060Z,6.18
2023-05-05T11:09:57.186Z,7.80
2023-05-05T11:12:23.899Z,8.10
2023-05-05T11:15:27.518Z,4.05
2023-05-05T11:18:01.933Z,3.92
2023-05-05T11:20:36.061Z,2.55
2023-05-05T11:23:02.786Z,5.20
2023-05-05T11:25:36.157Z,3.47
2023-05-05T11:28:06.904Z,2.80
2023-05-05T11:30:33.862Z,3.40
2023-05-05T11:33:23.121Z,2.72
2023-05-05T11:35:59.042Z,1.90
2023-05-05T11:38:41.764Z,2.95
2023-05-05T11:41:32.000Z,2.58
2023-05-05T11:44:18.548Z,2.50
2023-05-05T11:46:51.175Z,4.68
2023-05-05T11:49:37.175Z,2.35
2023-05-05T11:52:04.557Z,3.17
2023-05-05T11:54:31.536Z,3.10
2023-05-05T11:56:59.326Z,2.45
2023-05-05T11:59:26.144Z,2.72
2023-05-05T12:01:52.831Z,2.67
2023-05-05T12:04:19.707Z,3.35
2023-05-05T12:06:46.422Z,2.17
2023-05-05T12:09:19.590Z,4.38
2023-05-05T12:11:49.673Z,5.03
2023-05-05T12:14:16.366Z,1.85
2023-05-05T12:17:01.406Z,2.33
2023-05-05T12:19:30.416Z,2.35
2023-05-05T12:21:57.197Z,1.38
2023-05-05T12:24:23.782Z,6.50
2023-05-05T12:26:50.651Z,3.53
2023-05-05T12:29:27.733Z,2.47
2023-05-05T12:31:54.605Z,1.83
2023-05-05T12:34:21.395Z,2.15
2023-05-05T12:36:48.031Z,1.88
2023-05-05T12:39:14.750Z,2.80
2023-05-05T12:41:41.390Z,3.28
2023-05-05T12:44:08.007Z,3.03
2023-05-05T12:46:47.190Z,1.77
2023-05-05T12:49:14.061Z,2.65
2023-05-05T12:51:55.559Z,1.63
2023-05-05T12:54:24.379Z,3.05
2023-05-05T12:56:51.311Z,2.55
2023-05-05T12:59:20.988Z,4.03
2023-05-05T13:01:55.056Z,2.33
2023-05-05T13:04:23.211Z,2.47
2023-05-05T13:06:54.052Z,2.13
2023-05-05T13:09:30.460Z,2.58
2023-05-05T13:11:57.884Z,2.22
2023-05-05T13:14:24.525Z,3.55
2023-05-05T13:16:51.303Z,3.03
2023-05-05T13:19:17.993Z,1.70
2023-05-05T13:21:44.625Z,4.75
2023-05-05T13:24:22.979Z,3.35
2023-05-05T13:26:55.901Z,2.47
2023-05-05T13:29:24.327Z,3.45
2023-05-05T13:31:54.018Z,2.75
2023-05-05T13:34:20.770Z,2.40
2023-05-05T13:36:47.449Z,2.20
2023-05-05T13:39:14.384Z,5.10
2023-05-05T13:41:41.048Z,2.00
2023-05-05T13:44:07.724Z,3.63
2023-05-05T13:46:34.560Z,2.60
2023-05-05T13:49:01.281Z,2.22
2023-05-05T13:51:27.909Z,4.80
2023-05-05T13:53:56.707Z,2.17
2023-05-05T13:56:26.205Z,2.67
2023-05-05T13:58:53.294Z,4.43
2023-05-05T14:01:20.237Z,2.72
2023-05-05T14:03:47.057Z,3.50
2023-05-05T14:06:13.722Z,3.65
2023-05-05T14:08:40.454Z,3.45
2023-05-05T14:11:07.136Z,2.28
2023-05-05T14:13:33.810Z,2.55
2023-05-05T14:16:00.597Z,4.88
2023-05-05T14:18:28.144Z,3.03
2023-05-05T14:20:54.879Z,1.98
2023-05-05T14:23:21.673Z,1.80
2023-05-05T14:25:48.387Z,4.60
2023-05-05T14:28:15.016Z,3.10
2023-05-05T14:30:42.085Z,3.00
2023-05-05T14:33:08.719Z,2.58
2023-05-05T14:35:35.400Z,3.40
2023-05-05T14:38:01.975Z,2.20
2023-05-05T14:40:30.320Z,3.58
2023-05-05T14:42:57.745Z,2.35
2023-05-05T14:45:24.555Z,2.33
2023-05-05T14:47:51.218Z,2.05
2023-05-05T14:50:17.878Z,2.17
2023-05-05T14:52:44.758Z,6.15
2023-05-05T14:55:11.750Z,3.75
2023-05-05T14:57:38.938Z,2.45
2023-05-05T15:00:07.098Z,2.55
2023-05-05T15:02:34.011Z,2.53
2023-05-05T15:05:00.880Z,12.25
2023-05-05T15:07:30.723Z,4.28
2023-05-05T15:09:57.512Z,4.90
2023-05-05T15:12:24.341Z,2.38
2023-05-05T15:14:51.001Z,2.45
2023-05-05T15:17:17.757Z,2.97
2023-05-05T15:19:44.450Z,1.75
2023-05-05T15:22:11.144Z,1.90
2023-05-05T15:24:38.062Z,5.13
2023-05-05T15:27:04.830Z,2.63
2023-05-05T15:29:31.643Z,3.05
2023-05-05T15:31:58.457Z,3.78
2023-05-05T15:34:26.209Z,2.50
2023-05-05T15:36:52.844Z,4.13
2023-05-05T15:39:19.667Z,2.55
2023-05-05T15:41:46.328Z,4.47
2023-05-05T15:44:12.940Z,2.35
2023-05-05T15:46:39.847Z,5.80
2023-05-05T15:49:06.672Z,2.05
2023-05-05T15:51:33.348Z,3.05
2023-05-05T15:54:00.353Z,2.70
2023-05-05T15:56:27.602Z,6.93
2023-05-05T15:58:54.413Z,3.58
2023-05-05T16:01:21.172Z,4.55
2023-05-05T16:03:47.894Z,2.92
2023-05-05T16:06:14.526Z,5.35
2023-05-05T16:08:41.228Z,3.58
2023-05-05T16:11:07.938Z,2.50
2023-05-05T16:13:34.683Z,4.00
2023-05-05T16:16:01.514Z,11.52
2023-05-05T16:18:28.217Z,2.67
2023-05-05T16:20:54.878Z,2.00
2023-05-05T16:23:21.597Z,3.15
2023-05-05T16:25:48.196Z,6.40
2023-05-05T16:28:14.773Z,4.45
2023-05-05T16:30:42.998Z,2.20
2023-05-05T16:33:09.930Z,2.33
2023-05-05T16:35:36.671Z,1.83
2023-05-05T16:38:03.340Z,2.33
2023-05-05T16:40:29.981Z,1.80
2023-05-05T16:42:56.576Z,3.40
2023-05-05T16:45:24.351Z,2.08
2023-05-05T16:47:51.374Z,3.60
2023-05-05T16:50:18.121Z,3.13
2023-05-05T16:52:44.711Z,3.55
2023-05-05T16:55:11.621Z,2.70
2023-05-05T16:57:38.509Z,5.50
2023-05-05T17:00:09.309Z,6.57
2023-05-05T17:02:36.214Z,4.35
2023-05-05T17:05:03.167Z,7.60
2023-05-05T17:07:29.913Z,2.35
2023-05-05T17:09:56.611Z,2.85
2023-05-05T17:12:23.329Z,2.80
2023-05-05T17:14:50.062Z,2.85
2023-05-05T17:17:16.981Z,3.60
2023-05-05T17:19:44.884Z,7.30
2023-05-05T17:22:11.528Z,5.30
2023-05-05T17:24:38.198Z,3.78
2023-05-05T17:27:04.904Z,4.47
2023-05-05T17:29:32.767Z,9.13
2023-05-05T17:31:59.454Z,5.72
2023-05-05T17:34:26.270Z,4.50
2023-05-05T17:36:52.912Z,5.65
2023-05-05T17:39:19.657Z,5.82
2023-05-05T17:41:46.448Z,8.65
2023-05-05T17:44:13.115Z,4.85
2023-05-05T17:46:40.398Z,5.65
2023-05-05T17:49:07.094Z,4.30
2023-05-05T17:51:33.741Z,4.10
2023-05-05T17:54:00.401Z,5.72
2023-05-05T17:56:27.048Z,15.18
2023-05-05T17:58:53.821Z,11.93
2023-05-05T18:01:24.185Z,18.95
2023-05-05T18:03:50.988Z,28.33
2023-05-05T18:06:17.829Z,34.42
2023-05-05T18:08:44.852Z,30.13
2023-05-05T18:11:11.565Z,35.38
2023-05-05T18:13:38.892Z,26.30
2023-05-05T18:16:06.192Z,31.15
2023-05-05T18:18:32.996Z,26.40
2023-05-05T18:20:59.687Z,24.30
2023-05-05T18:23:26.790Z,23.40
2023-05-05T18:25:53.461Z,25.17
2023-05-05T18:28:20.559Z,23.30
2023-05-05T18:30:47.263Z,25.13
2023-05-05T18:33:14.044Z,21.80
2023-05-05T18:35:40.960Z,13.85
2023-05-05T18:38:07.698Z,13.07
2023-05-05T18:40:34.386Z,8.20
2023-05-05T18:43:01.018Z,11.45
2023-05-05T18:45:27.790Z,20.25
2023-05-05T18:47:54.577Z,20.83
2023-05-05T18:50:21.317Z,29.75
2023-05-05T18:52:48.030Z,22.50
2023-05-05T18:55:14.749Z,17.60
2023-05-05T18:57:41.356Z,27.83
2023-05-05T19:00:09.194Z,42.45
2023-05-05T19:02:35.916Z,37.42
2023-05-05T19:05:03.790Z,25.13
2023-05-05T19:07:35.441Z,29.23
2023-05-05T19:10:03.928Z,26.83
2023-05-05T19:12:30.746Z,24.30
2023-05-05T19:14:57.461Z,20.40
2023-05-05T19:17:24.348Z,30.52
2023-05-05T19:19:51.107Z,11.57
2023-05-05T19:22:17.836Z,9.02
2023-05-05T19:24:44.515Z,10.95
2023-05-05T19:27:15.515Z,7.45
2023-05-05T19:29:43.191Z,15.38
2023-05-05T19:32:09.927Z,23.73
2023-05-05T19:34:36.664Z,16.75
2023-05-05T19:37:03.322Z,9.05
2023-05-05T19:39:29.964Z,7.32
2023-05-05T19:41:56.631Z,7.07
2023-05-05T19:44:23.851Z,8.70
2023-05-05T19:46:50.693Z,11.52
2023-05-05T19:49:17.398Z,7.70
2023-05-05T19:51:46.349Z,7.10
2023-05-05T19:54:13.196Z,9.38
2023-05-05T19:56:40.485Z,8.80
2023-05-05T19:59:07.222Z,12.65
2023-05-05T20:01:34.962Z,11.32
2023-05-05T20:04:03.170Z,14.60
2023-05-05T20:06:29.811Z,15.38
2023-05-05T20:08:56.441Z,15.48
2023-05-05T20:11:23.130Z,15.65
2023-05-05T20:13:49.965Z,11.90
2023-05-05T20:16:16.703Z,7.90
2023-05-05T20:18:43.724Z,9.65
2023-05-05T20:21:10.383Z,9.77
2023-05-05T20:23:37.303Z,7.65
2023-05-05T20:26:03.928Z,10.90
2023-05-05T20:28:31.698Z,16.60
2023-05-05T20:30:58.473Z,15.63
2023-05-05T20:33:25.362Z,9.40
2023-05-05T20:35:52.071Z,8.40
2023-05-05T20:38:18.707Z,7.07
2023-05-05T20:40:45.686Z,9.25
2023-05-05T20:43:12.325Z,13.00
2023-05-05T20:45:39.020Z,11.32
2023-05-05T20:48:07.429Z,11.55
2023-05-05T20:50:34.155Z,12.82
2023-05-05T20:53:00.836Z,6.65
2023-05-05T20:55:27.513Z,7.65
2023-05-05T20:57:54.725Z,9.02
2023-05-05T21:00:21.525Z,17.77
2023-05-05T21:02:48.279Z,9.57
2023-05-05T21:05:15.006Z,8.43
2023-05-05T21:07:41.681Z,9.60
2023-05-05T21:10:08.970Z,10.25
2023-05-05T21:12:35.992Z,10.55
2023-05-05T21:15:02.796Z,12.32
2023-05-05T21:17:29.555Z,12.38
2023-05-05T21:19:56.919Z,13.20
2023-05-05T21:22:23.653Z,8.27
2023-05-05T21:24:50.333Z,9.82
2023-05-05T21:27:17.038Z,8.35
2023-05-05T21:29:43.716Z,8.20
2023-05-05T21:32:11.167Z,11.63
2023-05-05T21:34:38.286Z,7.75
2023-05-05T21:37:05.189Z,7.45
2023-05-05T21:39:33.116Z,8.30
2023-05-05T21:42:00.548Z,8.95
2023-05-05T21:44:28.292Z,14.35
2023-05-05T21:46:55.463Z,14.60
2023-05-05T21:49:22.246Z,16.42
2023-05-05T21:51:48.907Z,12.13
2023-05-05T21:54:15.877Z,17.02
2023-05-05T21:56:42.737Z,21.60
2023-05-05T21:59:09.441Z,32.05
2023-05-05T22:01:36.917Z,33.67
2023-05-05T22:04:03.930Z,15.82
2023-05-05T22:06:30.660Z,11.13
2023-05-05T22:08:57.288Z,10.80
2023-05-05T22:11:24.132Z,8.20
2023-05-05T22:13:50.788Z,7.65
2023-05-05T22:16:17.749Z,9.23
2023-05-05T22:18:44.492Z,9.13
2023-05-05T22:21:11.097Z,8.95
2023-05-05T22:23:39.065Z,9.73
2023-05-05T22:26:05.767Z,15.73
2023-05-05T22:28:32.532Z,7.97
2023-05-05T22:30:59.184Z,10.13
2023-05-05T22:33:25.897Z,9.25
2023-05-05T22:35:53.275Z,9.15
2023-05-05T22:38:19.954Z,7.95
2023-05-05T22:40:46.620Z,9.57
2023-05-05T22:43:13.204Z,7.40
2023-05-05T22:45:39.833Z,8.93
2023-05-05T22:48:06.529Z,10.65
2023-05-05T22:50:33.257Z,9.02
2023-05-05T22:52:59.983Z,9.65
2023-05-05T22:55:27.333Z,8.88
2023-05-05T22:57:54.021Z,8.63
2023-05-05T23:00:20.621Z,12.27
2023-05-05T23:02:47.467Z,8.57
2023-05-05T23:05:14.150Z,8.68
2023-05-05T23:07:40.963Z,7.03
2023-05-05T23:10:08.042Z,8.70
2023-05-05T23:12:34.757Z,8.70
2023-05-05T23:15:01.394Z,9.68
2023-05-05T23:17:28.069Z,7.38
2023-05-05T23:19:54.880Z,8.18
2023-05-05T23:22:21.549Z,10.90
2023-05-05T23:24:48.175Z,9.18
2023-05-05T23:27:14.886Z,8.55
2023-05-05T23:29:41.649Z,7.72
2023-05-05T23:32:08.356Z,6.25
2023-05-05T23:34:35.038Z,6.35
2023-05-05T23:37:02.510Z,7.43
2023-05-05T23:39:30.615Z,6.80
2023-05-05T23:41:57.590Z,7.95
2023-05-05T23:44:24.242Z,7.03
2023-05-05T23:46:51.097Z,8.63
2023-05-05T23:49:17.806Z,7.30
2023-05-05T23:51:44.528Z,10.75
2023-05-05T23:54:11.180Z,7.00
2023-05-05T23:56:37.934Z,9.10
2023-05-05T23:59:05.504Z,7.43
